createdAt,value
2023-03-07T00:06:26.508Z,49.05
2023-03-07T00:12:28.246Z,42.83
2023-03-07T00:18:31.214Z,48.58
2023-03-07T00:24:33.114Z,44.92
2023-03-07T00:30:35.084Z,47.05
2023-03-07T00:36:36.896Z,47.45
2023-03-07T00:42:38.709Z,47.85
2023-03-07T00:48:41.001Z,46.50
2023-03-07T00:54:42.797Z,45.80
2023-03-07T01:00:44.705Z,45.22
2023-03-07T01:06:46.647Z,45.40
2023-03-07T01:12:48.575Z,43.63
2023-03-07T01:18:53.515Z,44.15
2023-03-07T01:24:55.397Z,45.65
2023-03-07T01:30:58.890Z,43.55
2023-03-07T01:37:00.914Z,46.20
2023-03-07T01:43:32.131Z,42.13
2023-03-07T01:49:47.686Z,43.28
2023-03-07T01:55:50.412Z,46.08
2023-03-07T02:01:54.109Z,44.08
2023-03-07T02:08:00.406Z,44.78
2023-03-07T02:14:04.695Z,47.30
2023-03-07T02:20:21.629Z,49.75
2023-03-07T02:26:31.943Z,51.05
2023-03-07T02:32:34.480Z,52.20
2023-03-07T02:38:39.931Z,58.08
2023-03-07T02:44:47.176Z,53.03
2023-03-07T02:50:51.503Z,52.10
2023-03-07T02:56:54.407Z,53.92
2023-03-07T03:02:57.483Z,60.00
2023-03-07T03:09:01.196Z,56.15
2023-03-07T03:15:04.532Z,52.88
2023-03-07T03:21:12.034Z,49.20
2023-03-07T03:27:14.028Z,54.78
2023-03-07T03:33:17.674Z,49.92
2023-03-07T03:39:21.614Z,53.75
2023-03-07T03:45:28.466Z,55.40
2023-03-07T03:51:31.130Z,53.00
2023-03-07T03:57:33.487Z,53.03
2023-03-07T04:03:38.172Z,50.75
2023-03-07T04:09:40.079Z,56.00
2023-03-07T04:15:42.217Z,55.95
2023-03-07T04:21:44.809Z,50.67
2023-03-07T04:27:49.653Z,49.95
2023-03-07T04:33:52.985Z,46.28
2023-03-07T04:39:54.810Z,48.05
2023-03-07T04:45:57.731Z,46.85
2023-03-07T04:51:59.707Z,43.95
2023-03-07T04:58:01.718Z,43.13
2023-03-07T05:04:03.757Z,45.55
2023-03-07T05:10:06.312Z,41.83
2023-03-07T05:16:08.438Z,41.63
2023-03-07T05:22:10.414Z,41.63
2023-03-07T05:28:12.373Z,36.55
2023-03-07T05:34:15.897Z,35.63
2023-03-07T05:40:18.945Z,30.27
2023-03-07T05:46:22.842Z,32.38
2023-03-07T05:52:24.779Z,31.02
2023-03-07T05:58:26.602Z,32.97
2023-03-07T06:04:28.790Z,28.67
2023-03-07T06:10:30.586Z,29.60
2023-03-07T06:16:32.824Z,28.02
2023-03-07T06:22:39.928Z,29.20
2023-03-07T06:28:42.870Z,26.58
2023-03-07T06:34:46.082Z,28.58
2023-03-07T06:40:56.522Z,25.65
2023-03-07T06:46:58.533Z,26.38
2023-03-07T06:53:00.577Z,22.15
2023-03-07T06:59:02.653Z,23.38
2023-03-07T07:05:05.724Z,22.25
2023-03-07T07:11:07.727Z,19.95
2023-03-07T07:17:10.305Z,19.77
2023-03-07T07:23:12.152Z,21.02
2023-03-07T07:29:14.001Z,20.85
2023-03-07T07:35:17.829Z,18.63
2023-03-07T07:41:20.268Z,17.08
2023-03-07T07:47:25.103Z,17.70
2023-03-07T07:53:26.941Z,18.88
2023-03-07T07:59:28.886Z,16.60
2023-03-07T08:05:30.859Z,17.25
2023-03-07T08:11:32.772Z,15.90
2023-03-07T08:17:34.489Z,17.65
2023-03-07T08:23:36.966Z,19.45
2023-03-07T08:29:38.856Z,21.50
2023-03-07T08:35:40.620Z,20.00
2023-03-07T08:41:42.725Z,18.00
2023-03-07T08:47:44.437Z,20.23
2023-03-07T08:53:46.817Z,17.65
2023-03-07T08:59:48.555Z,21.17
2023-03-07T09:05:50.347Z,21.50
2023-03-07T09:11:52.139Z,20.50
2023-03-07T09:17:53.990Z,22.40
2023-03-07T09:23:57.137Z,21.63
2023-03-07T09:29:58.930Z,23.48
2023-03-07T09:36:03.552Z,22.45
2023-03-07T09:42:16.989Z,26.02
2023-03-07T09:48:36.496Z,24.33
2023-03-07T09:54:43.084Z,33.67
2023-03-07T10:00:48.135Z,30.65
2023-03-07T10:06:57.349Z,27.10
2023-03-07T10:13:18.112Z,27.63
2023-03-07T10:19:42.366Z,27.48
2023-03-07T10:26:01.382Z,25.77
2023-03-07T10:32:39.005Z,29.70
2023-03-07T10:38:52.596Z,23.55
2023-03-07T10:44:54.393Z,5.40
2023-03-07T10:51:18.958Z,2.80
2023-03-07T10:57:27.739Z,2.28
2023-03-07T11:03:52.763Z,1.73
2023-03-07T11:09:57.394Z,2.10
2023-03-07T11:16:11.983Z,1.60
2023-03-07T11:22:27.792Z,2.60
2023-03-07T11:28:33.455Z,2.22
2023-03-07T11:35:18.250Z,4.38
2023-03-07T11:41:40.170Z,2.55
2023-03-07T11:47:53.050Z,2.50
2023-03-07T11:54:07.812Z,2.00
2023-03-07T12:00:36.330Z,4.55
2023-03-07T12:07:16.164Z,4.45
2023-03-07T12:13:23.956Z,2.60
2023-03-07T12:19:44.332Z,3.03
2023-03-07T12:25:53.759Z,5.65
2023-03-07T12:32:00.647Z,2.30
2023-03-07T12:38:18.558Z,2.22
2023-03-07T12:44:40.806Z,5.32
2023-03-07T12:50:48.308Z,4.97
2023-03-07T13:03:01.432Z,3.95
2023-03-07T13:09:04.129Z,3.93
2023-03-07T13:15:07.148Z,3.47
2023-03-07T13:21:32.722Z,2.70
2023-03-07T13:27:40.618Z,5.95
2023-03-07T13:33:42.634Z,3.90
2023-03-07T13:40:01.117Z,3.63
2023-03-07T13:46:05.769Z,2.17
2023-03-07T13:52:36.104Z,4.95
2023-03-07T13:58:44.251Z,2.72
2023-03-07T14:04:54.157Z,2.30
2023-03-07T14:10:56.772Z,2.42
2023-03-07T14:17:12.945Z,2.75
2023-03-07T14:23:52.578Z,5.65
2023-03-07T14:29:56.986Z,10.20
2023-03-07T14:35:58.979Z,2.85
2023-03-07T14:42:25.202Z,3.00
2023-03-07T14:48:35.738Z,2.78
2023-03-07T14:54:38.194Z,2.00
2023-03-07T15:00:40.098Z,3.33
2023-03-07T15:06:44.089Z,2.70
2023-03-07T15:12:50.053Z,2.22
2023-03-07T15:19:01.895Z,2.55
2023-03-07T15:25:04.337Z,1.65
2023-03-07T15:31:11.444Z,2.17
2023-03-07T15:37:32.764Z,1.95
2023-03-07T15:43:35.485Z,3.03
2023-03-07T15:49:44.671Z,2.70
2023-03-07T15:55:58.647Z,1.83
2023-03-07T16:02:31.530Z,3.50
2023-03-07T16:08:33.532Z,4.25
2023-03-07T16:14:42.004Z,5.78
2023-03-07T16:20:44.611Z,5.65
2023-03-07T16:26:47.384Z,5.38
2023-03-07T16:32:49.373Z,7.97
2023-03-07T16:38:51.097Z,6.35
2023-03-07T16:44:53.189Z,6.43
2023-03-07T16:50:55.166Z,8.55
2023-03-07T16:56:58.356Z,8.05
2023-03-07T17:03:03.164Z,7.25
2023-03-07T17:09:06.627Z,10.40
2023-03-07T17:15:14.025Z,9.50
2023-03-07T17:27:19.948Z,7.95
2023-03-07T17:33:22.037Z,10.35
2023-03-07T17:39:24.127Z,9.77
2023-03-07T17:45:26.006Z,11.82
2023-03-07T17:51:27.783Z,12.77
2023-03-07T17:57:29.606Z,12.45
2023-03-07T18:03:31.314Z,7.75
2023-03-07T18:09:33.494Z,8.68
2023-03-07T18:15:35.230Z,8.85
2023-03-07T18:21:37.094Z,11.00
2023-03-07T18:27:38.784Z,11.25
2023-03-07T18:33:41.509Z,12.38
2023-03-07T18:39:43.367Z,9.55
2023-03-07T18:45:47.686Z,8.77
2023-03-07T18:51:49.457Z,15.57
2023-03-07T18:57:51.214Z,14.85
2023-03-07T19:03:55.163Z,10.35
2023-03-07T19:09:57.259Z,10.45
2023-03-07T19:16:14.458Z,8.43
2023-03-07T19:22:21.428Z,8.18
2023-03-07T19:28:23.168Z,7.63
2023-03-07T19:34:24.947Z,5.57
2023-03-07T19:40:28.476Z,4.05
2023-03-07T19:46:30.285Z,5.03
2023-03-07T19:52:32.120Z,5.40
2023-03-07T19:58:36.533Z,4.30
2023-03-07T20:04:38.218Z,6.13
2023-03-07T20:10:40.275Z,6.68
2023-03-07T20:16:42.048Z,4.05
2023-03-07T20:22:43.802Z,3.65
2023-03-07T20:28:45.963Z,8.80
2023-03-07T20:34:52.653Z,6.13
2023-03-07T20:41:06.991Z,4.82
2023-03-07T20:47:08.701Z,5.78
2023-03-07T20:53:10.476Z,5.18
2023-03-07T20:59:15.557Z,7.05
2023-03-07T21:05:17.286Z,9.20
2023-03-07T21:11:20.491Z,8.20
2023-03-07T21:17:22.275Z,9.38
2023-03-07T21:23:24.030Z,12.32
2023-03-07T21:29:25.801Z,10.23
2023-03-07T21:35:27.571Z,10.02
2023-03-07T21:41:29.598Z,9.98
2023-03-07T21:47:31.322Z,7.05
2023-03-07T21:53:33.691Z,11.15
2023-03-07T21:59:36.441Z,9.73
2023-03-07T22:05:38.985Z,11.60
2023-03-07T22:11:40.689Z,9.40
2023-03-07T22:17:42.402Z,15.20
2023-03-07T22:23:44.664Z,11.88
2023-03-07T22:29:46.492Z,9.63
2023-03-07T22:35:59.458Z,16.75
2023-03-07T22:42:01.314Z,17.80
2023-03-07T22:48:03.579Z,17.85
2023-03-07T22:54:06.261Z,15.15
2023-03-07T23:00:10.398Z,19.05
2023-03-07T23:06:13.029Z,23.33
2023-03-07T23:12:14.743Z,15.50
2023-03-07T23:18:16.501Z,19.67
2023-03-07T23:24:18.189Z,17.40
2023-03-07T23:30:20.192Z,19.92
2023-03-07T23:36:21.966Z,22.02
2023-03-07T23:42:23.817Z,19.73
2023-03-07T23:48:25.570Z,15.13
2023-03-07T23:54:27.364Z,19.80
